createdAt,value
2022-08-30T00:00:28.230Z,99280.05
2022-08-30T00:03:37.010Z,99284.10
2022-08-30T00:06:43.445Z,99281.44
2022-08-30T00:09:49.674Z,99280.95
2022-08-30T00:12:56.147Z,99284.13
2022-08-30T00:16:02.325Z,99282.95
2022-08-30T00:19:08.511Z,99285.23
2022-08-30T00:22:13.244Z,99298.41
2022-08-30T00:25:20.430Z,99297.33
2022-08-30T00:28:26.650Z,99299.82
2022-08-30T00:31:32.694Z,99298.98
2022-08-30T00:34:37.214Z,99300.42
2022-08-30T00:37:44.501Z,99303.58
2022-08-30T00:40:50.826Z,99301.30
2022-08-30T00:43:57.226Z,99298.77
2022-08-30T00:47:04.139Z,99302.88
2022-08-30T00:50:12.781Z,99303.38
2022-08-30T00:53:22.947Z,99296.90
2022-08-30T00:56:30.330Z,99299.77
2022-08-30T00:59:36.996Z,99296.64
2022-08-30T01:02:44.002Z,99295.79
2022-08-30T01:05:51.907Z,99294.59
2022-08-30T01:08:58.477Z,99294.19
2022-08-30T01:12:05.811Z,99293.33
2022-08-30T01:15:15.122Z,99288.92
2022-08-30T01:18:22.315Z,99286.48
2022-08-30T01:21:37.404Z,99284.88
2022-08-30T01:24:46.552Z,99284.16
2022-08-30T01:27:58.824Z,99289.94
2022-08-30T01:31:05.065Z,99290.17
2022-08-30T01:34:12.074Z,99290.30
2022-08-30T01:37:19.537Z,99286.60
2022-08-30T01:40:25.784Z,99283.66
2022-08-30T01:43:31.974Z,99284.32
2022-08-30T01:46:40.170Z,99289.08
2022-08-30T01:49:46.443Z,99286.41
2022-08-30T01:52:52.569Z,99286.01
2022-08-30T01:55:57.024Z,99287.20
2022-08-30T01:59:03.446Z,99285.77
2022-08-30T02:02:10.657Z,99278.35
2022-08-30T02:05:17.374Z,99277.20
2022-08-30T02:08:23.522Z,99276.73
2022-08-30T02:11:27.996Z,99278.23
2022-08-30T02:14:34.083Z,99277.34
2022-08-30T02:17:38.849Z,99276.75
2022-08-30T02:20:44.968Z,99275.38
2022-08-30T02:23:49.570Z,99276.02
2022-08-30T02:26:56.065Z,99274.45
2022-08-30T02:30:02.204Z,99272.30
2022-08-30T02:33:07.010Z,99271.07
2022-08-30T02:36:13.746Z,99275.74
2022-08-30T02:39:19.968Z,99274.17
2022-08-30T02:42:24.401Z,99274.58
2022-08-30T02:45:30.911Z,99275.45
2022-08-30T02:48:37.110Z,99273.39
2022-08-30T02:51:42.067Z,99274.56
2022-08-30T02:54:48.140Z,99271.54
2022-08-30T02:57:54.323Z,99269.66
2022-08-30T03:01:00.721Z,99268.71
2022-08-30T03:04:07.115Z,99266.96
2022-08-30T03:07:14.202Z,99267.60
2022-08-30T03:10:20.801Z,99265.88
2022-08-30T03:13:27.050Z,99265.48
2022-08-30T03:16:33.367Z,99269.64
2022-08-30T03:19:40.153Z,99273.17
2022-08-30T03:22:46.583Z,99276.42
2022-08-30T03:25:53.594Z,99274.24
2022-08-30T03:29:00.359Z,99282.13
2022-08-30T03:32:07.016Z,99284.77
2022-08-30T03:35:14.108Z,99282.63
2022-08-30T03:38:20.421Z,99286.92
2022-08-30T03:41:26.630Z,99282.21
2022-08-30T03:44:33.258Z,99285.52
2022-08-30T03:47:37.840Z,99288.55
2022-08-30T03:50:47.226Z,99286.75
2022-08-30T03:53:52.159Z,99290.40
2022-08-30T03:56:58.528Z,99293.84
2022-08-30T04:00:06.704Z,99298.88
2022-08-30T04:03:13.592Z,99298.48
2022-08-30T04:06:20.108Z,99300.95
2022-08-30T04:09:26.515Z,99301.53
2022-08-30T04:12:32.724Z,99300.73
2022-08-30T04:15:37.354Z,99302.25
2022-08-30T04:18:43.546Z,99302.67
2022-08-30T04:21:48.153Z,99306.52
2022-08-30T04:24:54.357Z,99311.06
2022-08-30T04:27:58.773Z,99311.70
2022-08-30T04:31:12.112Z,99311.26
2022-08-30T04:34:18.681Z,99315.45
2022-08-30T04:37:24.742Z,99319.64
2022-08-30T04:40:31.574Z,99322.71
2022-08-30T04:43:37.779Z,99322.70
2022-08-30T04:46:44.573Z,99323.56
2022-08-30T04:49:51.120Z,99322.75
2022-08-30T04:52:55.573Z,99322.54
2022-08-30T04:56:01.961Z,99329.64
2022-08-30T04:59:08.203Z,99335.70
2022-08-30T05:02:14.845Z,99337.14
2022-08-30T05:05:39.186Z,99337.78
2022-08-30T05:08:45.993Z,99341.30
2022-08-30T05:11:53.567Z,99340.47
2022-08-30T05:14:59.600Z,99337.32
2022-08-30T05:18:07.664Z,99337.58
2022-08-30T05:21:16.501Z,99342.96
2022-08-30T05:24:22.683Z,99340.96
2022-08-30T05:27:27.154Z,99342.86
2022-08-30T05:30:36.336Z,99341.69
2022-08-30T05:33:42.555Z,99340.85
2022-08-30T05:36:47.047Z,99345.36
2022-08-30T05:39:53.250Z,99345.66
2022-08-30T05:42:57.725Z,99343.80
2022-08-30T05:46:05.701Z,99348.89
2022-08-30T05:49:11.919Z,99349.27
2022-08-30T05:52:18.438Z,99349.66
2022-08-30T05:55:24.660Z,99353.99
2022-08-30T05:58:29.098Z,99350.94
2022-08-30T06:01:38.010Z,99350.67
2022-08-30T06:04:44.181Z,99351.38
2022-08-30T06:07:51.262Z,99353.20
2022-08-30T06:10:55.807Z,99354.04
2022-08-30T06:14:02.084Z,99357.49
2022-08-30T06:17:08.447Z,99361.08
2022-08-30T06:20:19.006Z,99368.19
2022-08-30T06:23:25.147Z,99365.14
2022-08-30T06:26:30.307Z,99363.88
2022-08-30T06:29:36.466Z,99365.20
2022-08-30T06:32:41.377Z,99363.10
2022-08-30T06:35:58.398Z,99360.71
2022-08-30T06:39:05.571Z,99365.50
2022-08-30T06:42:11.779Z,99362.84
2022-08-30T06:45:18.070Z,99363.48
2022-08-30T06:48:24.222Z,99362.09
2022-08-30T06:51:30.205Z,99363.64
2022-08-30T06:54:36.370Z,99362.42
2022-08-30T06:57:42.810Z,99357.95
2022-08-30T07:00:49.116Z,99356.55
2022-08-30T07:03:55.902Z,99362.65
2022-08-30T07:07:02.244Z,99355.70
2022-08-30T07:10:10.505Z,99358.64
2022-08-30T07:13:17.144Z,99354.25
2022-08-30T07:16:23.431Z,99354.34
2022-08-30T07:19:29.602Z,99349.92
2022-08-30T07:22:37.226Z,99352.70
2022-08-30T07:25:43.927Z,99355.73
2022-08-30T07:28:50.559Z,99353.13
2022-08-30T07:32:02.225Z,99352.63
2022-08-30T07:35:09.305Z,99355.00
2022-08-30T07:38:17.465Z,99349.64
2022-08-30T07:41:27.077Z,99346.06
2022-08-30T07:44:33.561Z,99344.58
2022-08-30T07:47:39.989Z,99348.23
2022-08-30T07:50:49.666Z,99349.14
2022-08-30T07:53:58.905Z,99349.01
2022-08-30T07:57:05.060Z,99349.48
2022-08-30T08:00:13.171Z,99354.00
2022-08-30T08:03:19.392Z,99354.27
2022-08-30T08:06:27.811Z,99352.20
2022-08-30T08:09:41.907Z,99352.71
2022-08-30T08:12:47.961Z,99353.61
2022-08-30T08:15:54.985Z,99353.09
2022-08-30T08:19:01.182Z,99360.13
2022-08-30T08:22:20.419Z,99360.98
2022-08-30T08:25:27.055Z,99356.72
2022-08-30T08:28:33.174Z,99355.70
2022-08-30T08:31:39.820Z,99358.55
2022-08-30T08:34:46.551Z,99363.11
2022-08-30T08:37:52.957Z,99359.70
2022-08-30T08:41:08.257Z,99359.09
2022-08-30T08:44:25.548Z,99360.15
2022-08-30T08:47:40.333Z,99364.85
2022-08-30T08:51:02.782Z,99367.61
2022-08-30T08:54:13.057Z,99367.13
2022-08-30T08:57:24.481Z,99371.16
2022-08-30T09:00:33.058Z,99371.61
2022-08-30T09:03:39.626Z,99366.54
2022-08-30T09:06:53.884Z,99370.46
2022-08-30T09:10:01.445Z,99369.82
2022-08-30T09:13:07.695Z,99368.84
2022-08-30T09:16:49.572Z,99361.63
2022-08-30T09:20:02.666Z,99354.45
2022-08-30T09:23:32.531Z,99361.75
2022-08-30T09:26:39.906Z,99361.12
2022-08-30T09:29:59.348Z,99364.27
2022-08-30T09:33:08.629Z,99362.95
2022-08-30T09:36:20.552Z,99359.88
2022-08-30T09:39:32.843Z,99351.05
2022-08-30T09:42:39.253Z,99350.42
2022-08-30T09:45:49.750Z,99347.73
2022-08-30T09:48:56.250Z,99348.57
2022-08-30T09:52:13.225Z,99352.54
2022-08-30T09:55:31.408Z,99357.45
2022-08-30T09:58:52.225Z,99356.88
2022-08-30T10:02:05.417Z,99354.90
2022-08-30T10:05:17.191Z,99354.02
2022-08-30T10:08:34.347Z,99346.20
2022-08-30T10:11:49.348Z,99340.31
2022-08-30T10:15:07.375Z,99337.46
2022-08-30T10:18:20.224Z,99337.58
2022-08-30T10:21:33.202Z,99333.05
2022-08-30T10:24:44.962Z,99334.20
2022-08-30T10:27:57.650Z,99339.83
2022-08-30T10:31:08.833Z,99331.95
2022-08-30T10:34:19.194Z,99323.61
2022-08-30T10:37:29.674Z,99325.63
2022-08-30T10:40:55.483Z,99328.42
2022-08-30T10:44:06.636Z,99325.73
2022-08-30T10:47:24.765Z,99323.48
2022-08-30T10:50:38.434Z,99322.08
2022-08-30T10:53:52.108Z,99315.17
2022-08-30T10:56:58.077Z,99312.54
2022-08-30T11:00:10.299Z,99307.45
2022-08-30T11:03:43.517Z,99312.93
2022-08-30T11:07:01.149Z,99315.33
2022-08-30T11:10:35.531Z,99306.30
2022-08-30T11:13:43.764Z,99306.29
2022-08-30T11:16:51.785Z,99302.73
2022-08-30T11:20:00.349Z,99301.81
2022-08-30T11:23:25.661Z,99293.98
2022-08-30T11:27:04.685Z,99300.77
2022-08-30T11:30:41.781Z,99298.41
2022-08-30T11:33:49.465Z,99300.44
2022-08-30T11:37:09.365Z,99291.73
2022-08-30T11:40:53.301Z,99290.20
2022-08-30T11:44:12.504Z,99294.08
2022-08-30T11:47:44.246Z,99287.45
2022-08-30T11:50:56.522Z,99281.52
2022-08-30T11:54:12.155Z,99283.29
2022-08-30T11:57:27.572Z,99281.65
2022-08-30T12:00:35.117Z,99278.55
2022-08-30T12:03:39.476Z,99271.11
2022-08-30T12:06:54.314Z,99269.39
2022-08-30T12:10:02.311Z,99269.29
2022-08-30T12:13:07.068Z,99271.23
2022-08-30T12:16:12.665Z,99268.20
2022-08-30T12:19:20.301Z,99267.48
2022-08-30T12:22:25.137Z,99261.39
2022-08-30T12:25:31.628Z,99255.08
2022-08-30T12:28:35.565Z,99250.06
2022-08-30T12:31:45.788Z,99240.08
2022-08-30T12:34:53.452Z,99238.25
2022-08-30T12:37:59.740Z,99237.31
2022-08-30T12:41:05.720Z,99235.47
2022-08-30T12:44:13.524Z,99234.04
2022-08-30T12:47:19.990Z,99233.41
2022-08-30T12:50:25.970Z,99229.02
2022-08-30T12:53:31.823Z,99228.20
2022-08-30T12:56:50.397Z,99222.86
2022-08-30T12:59:59.269Z,99225.52
2022-08-30T13:03:16.680Z,99223.10
2022-08-30T13:06:37.077Z,99220.02
2022-08-30T13:09:42.789Z,99218.30
2022-08-30T13:13:00.843Z,99212.02
2022-08-30T13:16:13.323Z,99209.71
2022-08-30T13:19:27.758Z,99209.00
2022-08-30T13:22:33.315Z,99210.23
2022-08-30T13:25:38.344Z,99209.31
2022-08-30T13:28:48.891Z,99207.02
2022-08-30T13:31:53.452Z,99207.89
2022-08-30T13:34:57.483Z,99206.27
2022-08-30T13:38:02.883Z,99202.42
2022-08-30T13:41:06.999Z,99204.52
2022-08-30T13:44:11.664Z,99203.15
2022-08-30T13:47:32.966Z,99200.09
2022-08-30T13:50:37.296Z,99196.64
2022-08-30T13:53:57.520Z,99195.11
2022-08-30T13:57:02.270Z,99200.02
2022-08-30T14:00:12.269Z,99190.67
2022-08-30T14:03:16.734Z,99187.75
2022-08-30T14:06:33.587Z,99177.40
2022-08-30T14:09:38.148Z,99173.67
2022-08-30T14:13:04.873Z,99173.60
2022-08-30T14:19:31.804Z,99170.27
2022-08-30T14:22:35.701Z,99166.66
2022-08-30T14:25:41.042Z,99172.70
2022-08-30T14:28:45.754Z,99170.95
2022-08-30T14:31:50.743Z,99171.17
2022-08-30T14:34:54.774Z,99165.21
2022-08-30T14:37:58.686Z,99156.59
2022-08-30T14:41:04.625Z,99158.27
2022-08-30T14:44:08.524Z,99155.50
2022-08-30T14:47:15.129Z,99157.19
2022-08-30T14:50:19.258Z,99155.35
2022-08-30T14:53:23.271Z,99153.40
2022-08-30T14:56:27.138Z,99150.46
2022-08-30T14:59:31.014Z,99148.70
2022-08-30T15:02:34.899Z,99153.88
2022-08-30T15:05:39.116Z,99148.45
2022-08-30T15:08:43.060Z,99150.33
2022-08-30T15:11:51.901Z,99152.56
2022-08-30T15:14:55.894Z,99150.70
2022-08-30T15:17:59.815Z,99151.79
2022-08-30T15:21:04.489Z,99153.67
2022-08-30T15:24:09.324Z,99152.98
2022-08-30T15:27:13.442Z,99152.91
2022-08-30T15:30:19.644Z,99151.84
2022-08-30T15:33:24.272Z,99147.77
2022-08-30T15:36:29.688Z,99148.11
2022-08-30T15:39:34.336Z,99146.29
2022-08-30T15:42:38.303Z,99145.21
2022-08-30T15:45:42.193Z,99143.92
2022-08-30T15:48:47.793Z,99143.41
2022-08-30T15:51:54.215Z,99139.84
2022-08-30T15:54:58.833Z,99138.41
2022-08-30T15:58:04.397Z,99134.95
2022-08-30T16:01:10.352Z,99135.35
2022-08-30T16:04:15.053Z,99133.76
2022-08-30T16:07:19.726Z,99133.42
2022-08-30T16:10:24.751Z,99130.92
2022-08-30T16:13:34.094Z,99128.91
2022-08-30T16:16:39.903Z,99131.89
2022-08-30T16:19:45.718Z,99130.74
2022-08-30T16:22:50.268Z,99125.66
2022-08-30T16:25:54.914Z,99126.73
2022-08-30T16:29:08.911Z,99121.79
2022-08-30T16:32:13.542Z,99117.38
2022-08-30T16:35:18.269Z,99118.44
2022-08-30T16:38:26.448Z,99121.18
2022-08-30T16:41:32.631Z,99118.97
2022-08-30T16:44:37.222Z,99120.57
2022-08-30T16:47:41.806Z,99123.84
2022-08-30T16:50:47.011Z,99126.11
2022-08-30T16:53:51.556Z,99124.61
2022-08-30T16:56:56.411Z,99126.65
2022-08-30T17:00:01.292Z,99129.17
2022-08-30T17:03:09.503Z,99135.77
2022-08-30T17:06:14.975Z,99135.26
2022-08-30T17:09:21.313Z,99141.48
2022-08-30T17:12:27.223Z,99139.73
2022-08-30T17:15:32.130Z,99142.23
2022-08-30T17:18:37.899Z,99148.06
2022-08-30T17:21:42.325Z,99150.57
2022-08-30T17:24:47.396Z,99157.55
2022-08-30T17:27:53.494Z,99165.03
2022-08-30T17:30:58.091Z,99170.84
2022-08-30T17:34:04.333Z,99176.02
2022-08-30T17:37:08.953Z,99174.53
2022-08-30T17:40:14.759Z,99175.57
2022-08-30T17:43:19.513Z,99182.31
2022-08-30T17:49:48.820Z,99191.81
2022-08-30T17:52:53.483Z,99192.29
2022-08-30T17:55:58.597Z,99198.59
2022-08-30T17:59:05.145Z,99200.66
2022-08-30T18:02:11.074Z,99208.85
2022-08-30T18:05:16.043Z,99209.77
2022-08-30T18:08:24.582Z,99217.64
2022-08-30T18:11:29.121Z,99216.51
2022-08-30T18:14:33.670Z,99226.84
2022-08-30T18:17:41.377Z,99230.75
2022-08-30T18:20:46.282Z,99231.84
2022-08-30T18:23:51.039Z,99234.16
2022-08-30T18:26:56.419Z,99234.14
2022-08-30T18:30:00.925Z,99236.30
2022-08-30T18:33:06.665Z,99237.01
2022-08-30T18:36:11.415Z,99241.63
2022-08-30T18:39:17.822Z,99241.98
2022-08-30T18:42:25.153Z,99243.17
2022-08-30T18:45:30.003Z,99243.35
2022-08-30T18:48:34.913Z,99250.27
2022-08-30T18:51:40.632Z,99246.86
2022-08-30T18:54:51.690Z,99244.13
2022-08-30T18:57:57.703Z,99246.58
2022-08-30T19:01:03.416Z,99246.73
2022-08-30T19:04:08.047Z,99247.41
2022-08-30T19:07:13.492Z,99253.04
2022-08-30T19:10:21.439Z,99251.70
2022-08-30T19:13:26.058Z,99255.61
2022-08-30T19:16:30.510Z,99254.60
2022-08-30T19:19:35.899Z,99252.06
2022-08-30T19:23:08.615Z,99253.39
2022-08-30T19:26:06.585Z,99248.61
2022-08-30T19:29:11.082Z,99246.90
2022-08-30T19:32:15.750Z,99247.78
2022-08-30T19:35:20.479Z,99247.88
2022-08-30T19:38:25.030Z,99246.86
2022-08-30T19:41:30.770Z,99253.58
2022-08-30T19:44:35.325Z,99255.90
2022-08-30T19:47:39.868Z,99259.45
2022-08-30T19:50:44.421Z,99263.70
2022-08-30T19:53:49.088Z,99263.02
2022-08-30T19:56:55.377Z,99265.50
2022-08-30T19:59:59.854Z,99266.73
2022-08-30T20:03:04.918Z,99262.31
2022-08-30T20:06:11.193Z,99262.15
2022-08-30T20:09:16.226Z,99262.84
2022-08-30T20:12:21.382Z,99261.01
2022-08-30T20:15:26.501Z,99263.20
2022-08-30T20:18:31.077Z,99264.06
2022-08-30T20:21:35.863Z,99269.80
2022-08-30T20:24:26.257Z,99187.33
2022-08-30T20:24:43.695Z,99263.63
2022-08-30T20:27:49.294Z,99261.23
2022-08-30T20:30:54.312Z,99257.75
2022-08-30T20:33:58.940Z,99257.73
2022-08-30T20:37:03.470Z,99256.66
2022-08-30T20:40:13.476Z,99259.31
2022-08-30T20:43:20.458Z,99263.52
2022-08-30T20:46:24.766Z,99266.13
2022-08-30T20:49:29.435Z,99269.33
2022-08-30T20:52:33.964Z,99266.62
2022-08-30T20:55:41.309Z,99272.41
2022-08-30T20:58:46.073Z,99272.56
2022-08-30T21:01:50.477Z,99271.77
2022-08-30T21:04:54.995Z,99271.50
2022-08-30T21:07:59.494Z,99272.36
2022-08-30T21:11:05.114Z,99271.83
2022-08-30T21:14:09.767Z,99273.30
2022-08-30T21:17:14.066Z,99270.84
2022-08-30T21:20:18.865Z,99273.54
2022-08-30T21:23:23.338Z,99275.94
2022-08-30T21:26:27.779Z,99280.54
2022-08-30T21:29:32.485Z,99283.88
2022-08-30T21:32:37.037Z,99285.14
2022-08-30T21:35:59.101Z,99290.83
2022-08-30T21:39:04.033Z,99287.20
2022-08-30T21:42:09.172Z,99287.41
2022-08-30T21:45:14.170Z,99284.53
2022-08-30T21:48:18.885Z,99285.51
2022-08-30T21:51:23.647Z,99279.67
2022-08-30T21:54:31.737Z,99286.55
2022-08-30T21:57:36.242Z,99286.46
2022-08-30T22:00:40.669Z,99281.92
2022-08-30T22:03:45.677Z,99281.95
2022-08-30T22:06:50.653Z,99279.04
2022-08-30T22:09:55.422Z,99275.46
2022-08-30T22:13:00.296Z,99276.07
2022-08-30T22:16:05.342Z,99274.70
2022-08-30T22:19:09.997Z,99273.27
2022-08-30T22:22:14.739Z,99268.38
2022-08-30T22:25:19.375Z,99268.29
2022-08-30T22:28:24.289Z,99265.81
2022-08-30T22:31:29.378Z,99266.60
2022-08-30T22:34:34.036Z,99266.96
2022-08-30T22:37:38.686Z,99268.81
2022-08-30T22:40:46.702Z,99270.21
2022-08-30T22:43:51.598Z,99268.59
2022-08-30T22:46:56.283Z,99271.67
2022-08-30T22:50:00.777Z,99267.44
2022-08-30T22:53:05.919Z,99268.42
2022-08-30T22:56:11.658Z,99265.88
2022-08-30T22:59:16.469Z,99261.50
2022-08-30T23:02:21.159Z,99264.45
2022-08-30T23:05:26.509Z,99266.83
2022-08-30T23:08:31.285Z,99265.92
2022-08-30T23:11:36.231Z,99267.77
2022-08-30T23:14:40.823Z,99268.48
2022-08-30T23:17:45.327Z,99266.09
2022-08-30T23:20:49.754Z,99266.02
2022-08-30T23:24:12.589Z,99264.89
2022-08-30T23:27:34.837Z,99261.73
2022-08-30T23:30:57.108Z,99262.14
2022-08-30T23:34:19.419Z,99258.77
2022-08-30T23:37:41.326Z,99257.50
2022-08-30T23:41:03.155Z,99249.56
2022-08-30T23:44:25.044Z,99258.08
2022-08-30T23:47:47.052Z,99253.98
2022-08-30T23:51:08.861Z,99250.70
2022-08-30T23:54:30.668Z,99246.98
2022-08-30T23:57:53.079Z,99248.17
